sensor_id;sensor_type;location;lat;lon;timestamp;P1;durP1;ratioP1;P2;durP2;ratioP2
63346;SDS011;49472;49.880;8.650;2024-01-10T00:01:41;40.67;;;26.60;;
63346;SDS011;49472;49.880;8.650;2024-01-10T00:04:06;36.57;;;25.77;;
63346;SDS011;49472;49.880;8.650;2024-01-10T00:06:31;44.30;;;27.07;;
63346;SDS011;49472;49.880;8.650;2024-01-10T00:08:56;41.17;;;24.93;;
63346;SDS011;49472;49.880;8.650;2024-01-10T00:11:22;37.13;;;26.10;;
63346;SDS011;49472;49.880;8.650;2024-01-10T00:13:47;39.43;;;26.13;;
63346;SDS011;49472;49.880;8.650;2024-01-10T00:16:12;43.67;;;27.67;;
63346;SDS011;49472;49.880;8.650;2024-01-10T00:18:38;41.23;;;26.43;;
63346;SDS011;49472;49.880;8.650;2024-01-10T00:21:05;38.40;;;26.60;;
63346;SDS011;49472;49.880;8.650;2024-01-10T00:23:30;43.63;;;27.97;;
63346;SDS011;49472;49.880;8.650;2024-01-10T00:25:55;41.70;;;27.80;;
63346;SDS011;49472;49.880;8.650;2024-01-10T00:28:20;42.43;;;27.60;;
63346;SDS011;49472;49.880;8.650;2024-01-10T00:30:46;40.53;;;26.47;;
63346;SDS011;49472;49.880;8.650;2024-01-10T00:33:13;43.90;;;28.03;;
63346;SDS011;49472;49.880;8.650;2024-01-10T00:35:39;41.87;;;27.50;;
63346;SDS011;49472;49.880;8.650;2024-01-10T00:38:04;44.83;;;27.23;;
63346;SDS011;49472;49.880;8.650;2024-01-10T00:40:29;46.63;;;27.33;;
63346;SDS011;49472;49.880;8.650;2024-01-10T00:42:54;39.67;;;25.73;;
63346;SDS011;49472;49.880;8.650;2024-01-10T00:45:20;46.43;;;28.27;;
63346;SDS011;49472;49.880;8.650;2024-01-10T00:47:45;41.90;;;26.33;;
63346;SDS011;49472;49.880;8.650;2024-01-10T00:50:12;37.37;;;26.57;;
63346;SDS011;49472;49.880;8.650;2024-01-10T00:52:37;43.90;;;28.20;;
63346;SDS011;49472;49.880;8.650;2024-01-10T00:55:02;42.20;;;26.93;;
63346;SDS011;49472;49.880;8.650;2024-01-10T00:57:27;42.20;;;27.50;;
63346;SDS011;49472;49.880;8.650;2024-01-10T00:59:52;45.57;;;27.90;;
63346;SDS011;49472;49.880;8.650;2024-01-10T01:02:18;39.33;;;25.93;;
63346;SDS011;49472;49.880;8.650;2024-01-10T01:04:43;42.47;;;26.80;;
63346;SDS011;49472;49.880;8.650;2024-01-10T01:07:09;47.50;;;27.27;;
63346;SDS011;49472;49.880;8.650;2024-01-10T01:09:34;40.33;;;27.70;;
63346;SDS011;49472;49.880;8.650;2024-01-10T01:12:00;38.33;;;26.20;;
63346;SDS011;49472;49.880;8.650;2024-01-10T01:14:26;42.97;;;27.30;;
63346;SDS011;49472;49.880;8.650;2024-01-10T01:16:52;38.17;;;27.03;;
63346;SDS011;49472;49.880;8.650;2024-01-10T01:19:17;48.13;;;28.13;;
63346;SDS011;49472;49.880;8.650;2024-01-10T01:21:45;41.73;;;27.60;;
63346;SDS011;49472;49.880;8.650;2024-01-10T01:24:10;40.00;;;28.07;;
63346;SDS011;49472;49.880;8.650;2024-01-10T01:26:36;43.50;;;27.47;;
63346;SDS011;49472;49.880;8.650;2024-01-10T01:29:01;43.13;;;27.13;;
63346;SDS011;49472;49.880;8.650;2024-01-10T01:31:26;40.40;;;25.80;;
63346;SDS011;49472;49.880;8.650;2024-01-10T01:33:51;42.97;;;27.13;;
63346;SDS011;49472;49.880;8.650;2024-01-10T01:36:17;43.10;;;27.63;;
63346;SDS011;49472;49.880;8.650;2024-01-10T01:38:42;43.90;;;26.60;;
63346;SDS011;49472;49.880;8.650;2024-01-10T01:41:07;40.53;;;26.20;;
63346;SDS011;49472;49.880;8.650;2024-01-10T01:43:32;43.30;;;28.70;;
63346;SDS011;49472;49.880;8.650;2024-01-10T01:45:58;43.90;;;26.67;;
63346;SDS011;49472;49.880;8.650;2024-01-10T01:48:23;40.67;;;26.13;;
63346;SDS011;49472;49.880;8.650;2024-01-10T01:50:53;42.47;;;27.23;;
63346;SDS011;49472;49.880;8.650;2024-01-10T01:53:18;46.97;;;28.50;;
63346;SDS011;49472;49.880;8.650;2024-01-10T01:55:44;41.43;;;27.77;;
63346;SDS011;49472;49.880;8.650;2024-01-10T01:58:10;48.97;;;30.37;;
63346;SDS011;49472;49.880;8.650;2024-01-10T02:00:36;46.20;;;29.57;;
63346;SDS011;49472;49.880;8.650;2024-01-10T02:03:02;45.07;;;28.73;;
63346;SDS011;49472;49.880;8.650;2024-01-10T02:05:28;45.87;;;28.90;;
63346;SDS011;49472;49.880;8.650;2024-01-10T02:07:53;43.70;;;27.60;;
63346;SDS011;49472;49.880;8.650;2024-01-10T02:10:20;40.33;;;28.30;;
63346;SDS011;49472;49.880;8.650;2024-01-10T02:12:45;39.47;;;27.87;;
63346;SDS011;49472;49.880;8.650;2024-01-10T02:15:11;51.77;;;29.00;;
63346;SDS011;49472;49.880;8.650;2024-01-10T02:17:36;50.20;;;29.27;;
63346;SDS011;49472;49.880;8.650;2024-01-10T02:20:11;44.23;;;28.97;;
63346;SDS011;49472;49.880;8.650;2024-01-10T02:22:37;47.10;;;28.93;;
63346;SDS011;49472;49.880;8.650;2024-01-10T02:25:03;51.83;;;30.30;;
63346;SDS011;49472;49.880;8.650;2024-01-10T02:27:29;46.87;;;28.90;;
63346;SDS011;49472;49.880;8.650;2024-01-10T02:29:54;39.60;;;27.23;;
63346;SDS011;49472;49.880;8.650;2024-01-10T02:32:19;42.07;;;27.60;;
63346;SDS011;49472;49.880;8.650;2024-01-10T02:34:44;52.47;;;32.27;;
63346;SDS011;49472;49.880;8.650;2024-01-10T02:37:10;44.33;;;27.17;;
63346;SDS011;49472;49.880;8.650;2024-01-10T02:39:35;44.87;;;27.20;;
63346;SDS011;49472;49.880;8.650;2024-01-10T02:42:00;46.83;;;29.33;;
63346;SDS011;49472;49.880;8.650;2024-01-10T02:44:25;41.97;;;28.37;;
63346;SDS011;49472;49.880;8.650;2024-01-10T02:46:51;50.63;;;29.20;;
63346;SDS011;49472;49.880;8.650;2024-01-10T02:49:16;45.70;;;28.50;;
63346;SDS011;49472;49.880;8.650;2024-01-10T02:51:43;55.40;;;29.87;;
63346;SDS011;49472;49.880;8.650;2024-01-10T02:54:08;41.53;;;27.47;;
63346;SDS011;49472;49.880;8.650;2024-01-10T02:56:33;46.90;;;27.40;;
63346;SDS011;49472;49.880;8.650;2024-01-10T02:58:58;45.73;;;28.33;;
63346;SDS011;49472;49.880;8.650;2024-01-10T03:01:24;43.97;;;27.60;;
63346;SDS011;49472;49.880;8.650;2024-01-10T03:03:50;42.67;;;27.87;;
63346;SDS011;49472;49.880;8.650;2024-01-10T03:06:16;42.77;;;28.43;;
63346;SDS011;49472;49.880;8.650;2024-01-10T03:08:41;47.70;;;30.60;;
63346;SDS011;49472;49.880;8.650;2024-01-10T03:11:06;45.50;;;29.33;;
63346;SDS011;49472;49.880;8.650;2024-01-10T03:13:31;49.87;;;30.03;;
63346;SDS011;49472;49.880;8.650;2024-01-10T03:15:57;45.60;;;28.87;;
63346;SDS011;49472;49.880;8.650;2024-01-10T03:18:23;46.17;;;30.13;;
63346;SDS011;49472;49.880;8.650;2024-01-10T03:20:48;44.50;;;29.87;;
63346;SDS011;49472;49.880;8.650;2024-01-10T03:23:13;49.63;;;30.17;;
63346;SDS011;49472;49.880;8.650;2024-01-10T03:25:38;49.47;;;29.10;;
63346;SDS011;49472;49.880;8.650;2024-01-10T03:28:04;43.67;;;27.53;;
63346;SDS011;49472;49.880;8.650;2024-01-10T03:30:30;49.37;;;29.27;;
63346;SDS011;49472;49.880;8.650;2024-01-10T03:32:55;43.30;;;28.10;;
63346;SDS011;49472;49.880;8.650;2024-01-10T03:35:20;48.00;;;30.50;;
63346;SDS011;49472;49.880;8.650;2024-01-10T03:37:45;51.40;;;29.13;;
63346;SDS011;49472;49.880;8.650;2024-01-10T03:40:11;48.63;;;28.97;;
63346;SDS011;49472;49.880;8.650;2024-01-10T03:42:36;45.13;;;28.93;;
63346;SDS011;49472;49.880;8.650;2024-01-10T03:45:01;52.67;;;30.73;;
63346;SDS011;49472;49.880;8.650;2024-01-10T03:47:28;47.97;;;29.30;;
63346;SDS011;49472;49.880;8.650;2024-01-10T03:49:53;47.50;;;30.90;;
63346;SDS011;49472;49.880;8.650;2024-01-10T03:52:18;44.70;;;28.57;;
63346;SDS011;49472;49.880;8.650;2024-01-10T03:54:44;45.67;;;30.77;;
63346;SDS011;49472;49.880;8.650;2024-01-10T03:57:09;42.13;;;29.20;;
63346;SDS011;49472;49.880;8.650;2024-01-10T03:59:34;50.87;;;29.63;;
63346;SDS011;49472;49.880;8.650;2024-01-10T04:02:00;50.20;;;30.43;;
63346;SDS011;49472;49.880;8.650;2024-01-10T04:04:25;49.90;;;30.03;;
63346;SDS011;49472;49.880;8.650;2024-01-10T04:06:51;46.60;;;29.30;;
63346;SDS011;49472;49.880;8.650;2024-01-10T04:09:17;56.13;;;30.83;;
63346;SDS011;49472;49.880;8.650;2024-01-10T04:11:42;50.33;;;30.40;;
63346;SDS011;49472;49.880;8.650;2024-01-10T04:14:08;54.60;;;31.53;;
63346;SDS011;49472;49.880;8.650;2024-01-10T04:16:36;51.23;;;30.93;;
63346;SDS011;49472;49.880;8.650;2024-01-10T04:19:01;51.63;;;30.53;;
63346;SDS011;49472;49.880;8.650;2024-01-10T04:21:26;54.13;;;30.87;;
63346;SDS011;49472;49.880;8.650;2024-01-10T04:23:52;50.63;;;33.00;;
63346;SDS011;49472;49.880;8.650;2024-01-10T04:26:18;54.00;;;31.10;;
63346;SDS011;49472;49.880;8.650;2024-01-10T04:28:43;47.77;;;31.20;;
63346;SDS011;49472;49.880;8.650;2024-01-10T04:31:08;60.27;;;31.23;;
63346;SDS011;49472;49.880;8.650;2024-01-10T04:33:33;47.20;;;29.10;;
63346;SDS011;49472;49.880;8.650;2024-01-10T04:35:59;50.97;;;32.23;;
63346;SDS011;49472;49.880;8.650;2024-01-10T04:38:24;51.57;;;31.60;;
63346;SDS011;49472;49.880;8.650;2024-01-10T04:40:51;49.23;;;30.50;;
63346;SDS011;49472;49.880;8.650;2024-01-10T04:43:16;50.60;;;30.20;;
63346;SDS011;49472;49.880;8.650;2024-01-10T04:45:41;44.23;;;29.40;;
63346;SDS011;49472;49.880;8.650;2024-01-10T04:48:07;52.57;;;30.47;;
63346;SDS011;49472;49.880;8.650;2024-01-10T04:50:32;51.53;;;30.63;;
63346;SDS011;49472;49.880;8.650;2024-01-10T04:52:57;53.97;;;31.03;;
63346;SDS011;49472;49.880;8.650;2024-01-10T04:55:22;50.23;;;31.27;;
63346;SDS011;49472;49.880;8.650;2024-01-10T04:57:47;46.17;;;30.47;;
63346;SDS011;49472;49.880;8.650;2024-01-10T05:00:13;51.93;;;31.50;;
63346;SDS011;49472;49.880;8.650;2024-01-10T05:02:38;58.00;;;32.30;;
63346;SDS011;49472;49.880;8.650;2024-01-10T05:05:04;49.77;;;31.43;;
63346;SDS011;49472;49.880;8.650;2024-01-10T05:07:29;59.10;;;32.90;;
63346;SDS011;49472;49.880;8.650;2024-01-10T05:09:54;52.07;;;30.83;;
63346;SDS011;49472;49.880;8.650;2024-01-10T05:12:19;51.90;;;32.47;;
63346;SDS011;49472;49.880;8.650;2024-01-10T05:14:44;47.60;;;30.50;;
63346;SDS011;49472;49.880;8.650;2024-01-10T05:17:10;50.00;;;29.20;;
63346;SDS011;49472;49.880;8.650;2024-01-10T05:19:35;52.03;;;31.37;;
63346;SDS011;49472;49.880;8.650;2024-01-10T05:22:00;57.10;;;31.53;;
63346;SDS011;49472;49.880;8.650;2024-01-10T05:24:26;52.53;;;32.03;;
63346;SDS011;49472;49.880;8.650;2024-01-10T05:26:51;55.50;;;32.40;;
63346;SDS011;49472;49.880;8.650;2024-01-10T05:29:16;50.67;;;32.17;;
63346;SDS011;49472;49.880;8.650;2024-01-10T05:31:43;56.40;;;33.10;;
63346;SDS011;49472;49.880;8.650;2024-01-10T05:34:08;48.63;;;31.10;;
63346;SDS011;49472;49.880;8.650;2024-01-10T05:36:33;50.43;;;32.43;;
63346;SDS011;49472;49.880;8.650;2024-01-10T05:38:58;53.83;;;33.17;;
63346;SDS011;49472;49.880;8.650;2024-01-10T05:41:24;51.97;;;31.20;;
63346;SDS011;49472;49.880;8.650;2024-01-10T05:43:50;47.23;;;29.87;;
63346;SDS011;49472;49.880;8.650;2024-01-10T05:46:15;53.97;;;32.30;;
63346;SDS011;49472;49.880;8.650;2024-01-10T05:48:41;49.37;;;31.77;;
63346;SDS011;49472;49.880;8.650;2024-01-10T05:51:06;49.83;;;33.13;;
63346;SDS011;49472;49.880;8.650;2024-01-10T05:53:31;56.97;;;33.50;;
63346;SDS011;49472;49.880;8.650;2024-01-10T05:55:57;43.43;;;29.40;;
63346;SDS011;49472;49.880;8.650;2024-01-10T05:58:23;51.37;;;31.80;;
63346;SDS011;49472;49.880;8.650;2024-01-10T06:00:48;50.60;;;30.70;;
63346;SDS011;49472;49.880;8.650;2024-01-10T06:03:13;50.70;;;31.20;;
63346;SDS011;49472;49.880;8.650;2024-01-10T06:05:39;57.00;;;30.43;;
63346;SDS011;49472;49.880;8.650;2024-01-10T06:08:04;45.13;;;30.60;;
63346;SDS011;49472;49.880;8.650;2024-01-10T06:10:31;56.67;;;32.00;;
63346;SDS011;49472;49.880;8.650;2024-01-10T06:12:56;51.10;;;31.50;;
63346;SDS011;49472;49.880;8.650;2024-01-10T06:15:21;56.40;;;31.17;;
63346;SDS011;49472;49.880;8.650;2024-01-10T06:17:46;56.60;;;30.93;;
63346;SDS011;49472;49.880;8.650;2024-01-10T06:20:11;50.47;;;31.63;;
63346;SDS011;49472;49.880;8.650;2024-01-10T06:22:37;52.70;;;32.43;;
63346;SDS011;49472;49.880;8.650;2024-01-10T06:25:02;53.70;;;31.60;;
63346;SDS011;49472;49.880;8.650;2024-01-10T06:27:27;51.70;;;30.27;;
63346;SDS011;49472;49.880;8.650;2024-01-10T06:29:53;48.13;;;30.50;;
63346;SDS011;49472;49.880;8.650;2024-01-10T06:32:19;51.40;;;31.80;;
63346;SDS011;49472;49.880;8.650;2024-01-10T06:34:44;51.40;;;30.67;;
63346;SDS011;49472;49.880;8.650;2024-01-10T06:37:10;49.30;;;31.30;;
63346;SDS011;49472;49.880;8.650;2024-01-10T06:39:35;47.47;;;32.30;;
63346;SDS011;49472;49.880;8.650;2024-01-10T06:42:01;55.90;;;32.83;;
63346;SDS011;49472;49.880;8.650;2024-01-10T06:44:28;57.27;;;31.50;;
63346;SDS011;49472;49.880;8.650;2024-01-10T06:46:53;51.20;;;32.30;;
63346;SDS011;49472;49.880;8.650;2024-01-10T06:49:19;56.97;;;32.53;;
63346;SDS011;49472;49.880;8.650;2024-01-10T06:51:44;57.23;;;33.97;;
63346;SDS011;49472;49.880;8.650;2024-01-10T06:54:09;57.53;;;32.43;;
63346;SDS011;49472;49.880;8.650;2024-01-10T06:56:34;48.17;;;31.67;;
63346;SDS011;49472;49.880;8.650;2024-01-10T06:59:00;49.10;;;31.13;;
63346;SDS011;49472;49.880;8.650;2024-01-10T07:01:27;52.60;;;34.00;;
63346;SDS011;49472;49.880;8.650;2024-01-10T07:03:52;57.20;;;33.97;;
63346;SDS011;49472;49.880;8.650;2024-01-10T07:06:19;58.50;;;34.70;;
63346;SDS011;49472;49.880;8.650;2024-01-10T07:08:45;59.40;;;33.37;;
63346;SDS011;49472;49.880;8.650;2024-01-10T07:11:11;55.83;;;34.80;;
63346;SDS011;49472;49.880;8.650;2024-01-10T07:13:36;51.77;;;32.00;;
63346;SDS011;49472;49.880;8.650;2024-01-10T07:16:01;51.87;;;32.70;;
63346;SDS011;49472;49.880;8.650;2024-01-10T07:18:30;54.40;;;32.80;;
63346;SDS011;49472;49.880;8.650;2024-01-10T07:20:56;55.47;;;32.47;;
63346;SDS011;49472;49.880;8.650;2024-01-10T07:23:21;50.90;;;32.20;;
63346;SDS011;49472;49.880;8.650;2024-01-10T07:25:47;55.00;;;31.67;;
63346;SDS011;49472;49.880;8.650;2024-01-10T07:28:12;64.67;;;32.47;;
63346;SDS011;49472;49.880;8.650;2024-01-10T07:30:38;57.57;;;31.83;;
63346;SDS011;49472;49.880;8.650;2024-01-10T07:33:04;55.90;;;33.30;;
63346;SDS011;49472;49.880;8.650;2024-01-10T07:35:29;52.90;;;32.03;;
63346;SDS011;49472;49.880;8.650;2024-01-10T07:37:55;53.13;;;33.53;;
63346;SDS011;49472;49.880;8.650;2024-01-10T07:40:20;60.57;;;34.00;;
63346;SDS011;49472;49.880;8.650;2024-01-10T07:42:46;58.07;;;32.00;;
63346;SDS011;49472;49.880;8.650;2024-01-10T07:45:11;56.00;;;34.47;;
63346;SDS011;49472;49.880;8.650;2024-01-10T07:47:36;59.60;;;32.87;;
63346;SDS011;49472;49.880;8.650;2024-01-10T07:50:05;52.50;;;34.67;;
63346;SDS011;49472;49.880;8.650;2024-01-10T07:52:33;55.17;;;33.10;;
63346;SDS011;49472;49.880;8.650;2024-01-10T07:54:59;52.63;;;33.73;;
63346;SDS011;49472;49.880;8.650;2024-01-10T07:57:24;59.70;;;32.50;;
63346;SDS011;49472;49.880;8.650;2024-01-10T07:59:49;53.80;;;32.73;;
63346;SDS011;49472;49.880;8.650;2024-01-10T08:02:14;53.20;;;32.70;;
63346;SDS011;49472;49.880;8.650;2024-01-10T08:04:40;54.10;;;33.40;;
63346;SDS011;49472;49.880;8.650;2024-01-10T08:07:05;46.13;;;31.27;;
63346;SDS011;49472;49.880;8.650;2024-01-10T08:09:31;56.20;;;31.90;;
63346;SDS011;49472;49.880;8.650;2024-01-10T08:11:56;56.07;;;31.87;;
63346;SDS011;49472;49.880;8.650;2024-01-10T08:14:22;52.83;;;32.30;;
63346;SDS011;49472;49.880;8.650;2024-01-10T08:16:47;54.37;;;32.60;;
63346;SDS011;49472;49.880;8.650;2024-01-10T08:19:13;58.73;;;33.83;;
63346;SDS011;49472;49.880;8.650;2024-01-10T08:21:38;53.20;;;33.27;;
63346;SDS011;49472;49.880;8.650;2024-01-10T08:24:04;56.17;;;32.67;;
63346;SDS011;49472;49.880;8.650;2024-01-10T08:26:30;59.40;;;34.27;;
63346;SDS011;49472;49.880;8.650;2024-01-10T08:28:55;57.07;;;33.67;;
63346;SDS011;49472;49.880;8.650;2024-01-10T08:31:21;57.43;;;32.87;;
63346;SDS011;49472;49.880;8.650;2024-01-10T08:33:47;59.67;;;34.33;;
63346;SDS011;49472;49.880;8.650;2024-01-10T08:36:13;52.93;;;34.60;;
63346;SDS011;49472;49.880;8.650;2024-01-10T08:38:39;50.50;;;32.00;;
63346;SDS011;49472;49.880;8.650;2024-01-10T08:41:04;48.40;;;31.57;;
63346;SDS011;49472;49.880;8.650;2024-01-10T08:43:30;51.90;;;30.23;;
63346;SDS011;49472;49.880;8.650;2024-01-10T08:45:57;49.80;;;32.90;;
63346;SDS011;49472;49.880;8.650;2024-01-10T08:48:26;59.63;;;32.03;;
63346;SDS011;49472;49.880;8.650;2024-01-10T08:50:51;48.47;;;32.80;;
63346;SDS011;49472;49.880;8.650;2024-01-10T08:53:16;55.33;;;34.27;;
63346;SDS011;49472;49.880;8.650;2024-01-10T08:55:42;50.73;;;30.50;;
63346;SDS011;49472;49.880;8.650;2024-01-10T08:58:07;58.70;;;32.40;;
63346;SDS011;49472;49.880;8.650;2024-01-10T09:00:32;48.83;;;32.13;;
63346;SDS011;49472;49.880;8.650;2024-01-10T09:02:59;50.20;;;32.50;;
63346;SDS011;49472;49.880;8.650;2024-01-10T09:05:24;46.93;;;32.13;;
63346;SDS011;49472;49.880;8.650;2024-01-10T09:07:50;54.53;;;33.60;;
63346;SDS011;49472;49.880;8.650;2024-01-10T09:10:15;52.40;;;32.77;;
63346;SDS011;49472;49.880;8.650;2024-01-10T09:12:41;48.17;;;31.40;;
63346;SDS011;49472;49.880;8.650;2024-01-10T09:15:10;52.13;;;34.43;;
63346;SDS011;49472;49.880;8.650;2024-01-10T09:17:38;53.77;;;32.23;;
63346;SDS011;49472;49.880;8.650;2024-01-10T09:20:04;53.20;;;34.13;;
63346;SDS011;49472;49.880;8.650;2024-01-10T09:22:29;51.10;;;31.97;;
63346;SDS011;49472;49.880;8.650;2024-01-10T09:24:54;51.43;;;31.53;;
63346;SDS011;49472;49.880;8.650;2024-01-10T09:27:19;50.83;;;30.57;;
63346;SDS011;49472;49.880;8.650;2024-01-10T09:29:44;47.30;;;29.57;;
63346;SDS011;49472;49.880;8.650;2024-01-10T09:32:10;52.33;;;31.87;;
63346;SDS011;49472;49.880;8.650;2024-01-10T09:34:35;47.37;;;31.40;;
63346;SDS011;49472;49.880;8.650;2024-01-10T09:37:01;43.50;;;31.40;;
63346;SDS011;49472;49.880;8.650;2024-01-10T09:39:27;47.17;;;30.47;;
63346;SDS011;49472;49.880;8.650;2024-01-10T09:41:52;48.70;;;30.57;;
63346;SDS011;49472;49.880;8.650;2024-01-10T09:44:17;47.60;;;30.60;;
63346;SDS011;49472;49.880;8.650;2024-01-10T09:46:43;52.83;;;31.73;;
63346;SDS011;49472;49.880;8.650;2024-01-10T09:49:10;49.60;;;30.27;;
63346;SDS011;49472;49.880;8.650;2024-01-10T09:51:36;48.07;;;33.17;;
63346;SDS011;49472;49.880;8.650;2024-01-10T09:54:02;54.10;;;32.90;;
63346;SDS011;49472;49.880;8.650;2024-01-10T09:56:28;51.67;;;33.47;;
63346;SDS011;49472;49.880;8.650;2024-01-10T09:58:54;51.03;;;31.57;;
63346;SDS011;49472;49.880;8.650;2024-01-10T10:01:20;48.60;;;30.67;;
63346;SDS011;49472;49.880;8.650;2024-01-10T10:03:45;55.07;;;32.10;;
63346;SDS011;49472;49.880;8.650;2024-01-10T10:06:12;49.27;;;29.93;;
63346;SDS011;49472;49.880;8.650;2024-01-10T10:08:38;49.60;;;32.20;;
63346;SDS011;49472;49.880;8.650;2024-01-10T10:11:05;53.33;;;31.50;;
63346;SDS011;49472;49.880;8.650;2024-01-10T10:13:30;50.20;;;30.83;;
63346;SDS011;49472;49.880;8.650;2024-01-10T10:15:58;49.00;;;31.60;;
63346;SDS011;49472;49.880;8.650;2024-01-10T10:18:24;49.80;;;31.10;;
63346;SDS011;49472;49.880;8.650;2024-01-10T10:21:03;43.03;;;30.93;;
63346;SDS011;49472;49.880;8.650;2024-01-10T10:23:30;53.10;;;31.70;;
63346;SDS011;49472;49.880;8.650;2024-01-10T10:25:56;48.83;;;31.20;;
63346;SDS011;49472;49.880;8.650;2024-01-10T10:28:21;47.67;;;31.93;;
63346;SDS011;49472;49.880;8.650;2024-01-10T10:30:46;52.53;;;33.17;;
63346;SDS011;49472;49.880;8.650;2024-01-10T10:33:11;45.97;;;32.43;;
63346;SDS011;49472;49.880;8.650;2024-01-10T10:35:36;48.07;;;30.80;;
63346;SDS011;49472;49.880;8.650;2024-01-10T10:38:02;51.47;;;31.67;;
63346;SDS011;49472;49.880;8.650;2024-01-10T10:40:28;46.53;;;29.83;;
63346;SDS011;49472;49.880;8.650;2024-01-10T10:42:56;49.63;;;33.40;;
63346;SDS011;49472;49.880;8.650;2024-01-10T10:45:22;55.10;;;32.37;;
63346;SDS011;49472;49.880;8.650;2024-01-10T10:47:56;52.77;;;34.13;;
63346;SDS011;49472;49.880;8.650;2024-01-10T10:50:22;50.30;;;32.17;;
63346;SDS011;49472;49.880;8.650;2024-01-10T10:52:48;46.97;;;31.67;;
63346;SDS011;49472;49.880;8.650;2024-01-10T10:55:17;47.43;;;32.57;;
63346;SDS011;49472;49.880;8.650;2024-01-10T10:57:46;51.80;;;33.33;;
63346;SDS011;49472;49.880;8.650;2024-01-10T11:00:15;51.60;;;33.13;;
63346;SDS011;49472;49.880;8.650;2024-01-10T11:02:41;51.23;;;32.30;;
63346;SDS011;49472;49.880;8.650;2024-01-10T11:05:06;50.73;;;32.57;;
63346;SDS011;49472;49.880;8.650;2024-01-10T11:07:34;48.83;;;32.47;;
63346;SDS011;49472;49.880;8.650;2024-01-10T11:09:59;47.30;;;32.27;;
63346;SDS011;49472;49.880;8.650;2024-01-10T11:12:48;53.80;;;33.20;;
63346;SDS011;49472;49.880;8.650;2024-01-10T11:15:24;46.73;;;29.97;;
63346;SDS011;49472;49.880;8.650;2024-01-10T11:23:00;48.50;;;32.00;;
63346;SDS011;49472;49.880;8.650;2024-01-10T11:25:29;51.27;;;29.10;;
63346;SDS011;49472;49.880;8.650;2024-01-10T11:27:54;41.33;;;29.00;;
63346;SDS011;49472;49.880;8.650;2024-01-10T11:30:47;46.70;;;31.50;;
63346;SDS011;49472;49.880;8.650;2024-01-10T11:33:20;44.83;;;30.20;;
63346;SDS011;49472;49.880;8.650;2024-01-10T11:38:29;52.13;;;31.10;;
63346;SDS011;49472;49.880;8.650;2024-01-10T11:40:54;43.77;;;29.20;;
63346;SDS011;49472;49.880;8.650;2024-01-10T11:43:20;48.00;;;30.10;;
63346;SDS011;49472;49.880;8.650;2024-01-10T11:45:52;49.83;;;32.13;;
63346;SDS011;49472;49.880;8.650;2024-01-10T11:48:28;42.83;;;30.00;;
63346;SDS011;49472;49.880;8.650;2024-01-10T11:50:56;41.47;;;29.23;;
63346;SDS011;49472;49.880;8.650;2024-01-10T11:53:38;39.57;;;28.53;;
63346;SDS011;49472;49.880;8.650;2024-01-10T11:56:14;34.77;;;28.17;;
63346;SDS011;49472;49.880;8.650;2024-01-10T11:58:53;43.23;;;29.03;;
63346;SDS011;49472;49.880;8.650;2024-01-10T12:01:19;55.10;;;28.20;;
63346;SDS011;49472;49.880;8.650;2024-01-10T12:03:44;43.97;;;29.40;;
63346;SDS011;49472;49.880;8.650;2024-01-10T12:06:09;44.13;;;29.07;;
63346;SDS011;49472;49.880;8.650;2024-01-10T12:08:34;43.83;;;30.03;;
63346;SDS011;49472;49.880;8.650;2024-01-10T12:11:00;44.17;;;29.70;;
63346;SDS011;49472;49.880;8.650;2024-01-10T12:13:26;45.40;;;29.33;;
63346;SDS011;49472;49.880;8.650;2024-01-10T12:15:52;45.67;;;28.80;;
63346;SDS011;49472;49.880;8.650;2024-01-10T12:18:17;34.77;;;27.73;;
63346;SDS011;49472;49.880;8.650;2024-01-10T12:20:42;44.30;;;29.30;;
63346;SDS011;49472;49.880;8.650;2024-01-10T12:23:10;39.17;;;28.27;;
63346;SDS011;49472;49.880;8.650;2024-01-10T12:25:35;45.40;;;31.10;;
63346;SDS011;49472;49.880;8.650;2024-01-10T12:28:02;41.30;;;30.10;;
63346;SDS011;49472;49.880;8.650;2024-01-10T12:30:28;47.57;;;31.10;;
63346;SDS011;49472;49.880;8.650;2024-01-10T12:32:53;38.77;;;30.07;;
63346;SDS011;49472;49.880;8.650;2024-01-10T12:35:19;47.10;;;31.10;;
63346;SDS011;49472;49.880;8.650;2024-01-10T12:37:56;42.53;;;29.57;;
63346;SDS011;49472;49.880;8.650;2024-01-10T12:40:22;42.97;;;30.60;;
63346;SDS011;49472;49.880;8.650;2024-01-10T12:42:47;36.07;;;29.87;;
63346;SDS011;49472;49.880;8.650;2024-01-10T12:45:22;36.80;;;28.97;;
63346;SDS011;49472;49.880;8.650;2024-01-10T12:47:47;43.87;;;32.47;;
63346;SDS011;49472;49.880;8.650;2024-01-10T12:50:12;40.07;;;30.30;;
63346;SDS011;49472;49.880;8.650;2024-01-10T12:52:38;42.37;;;30.43;;
63346;SDS011;49472;49.880;8.650;2024-01-10T12:55:05;36.43;;;28.77;;
63346;SDS011;49472;49.880;8.650;2024-01-10T12:57:30;41.33;;;30.80;;
63346;SDS011;49472;49.880;8.650;2024-01-10T12:59:55;38.70;;;30.13;;
63346;SDS011;49472;49.880;8.650;2024-01-10T13:02:20;41.63;;;30.60;;
63346;SDS011;49472;49.880;8.650;2024-01-10T13:04:46;43.93;;;32.37;;
63346;SDS011;49472;49.880;8.650;2024-01-10T13:07:11;39.90;;;30.27;;
63346;SDS011;49472;49.880;8.650;2024-01-10T13:09:37;39.53;;;30.70;;
63346;SDS011;49472;49.880;8.650;2024-01-10T13:12:02;38.60;;;30.17;;
63346;SDS011;49472;49.880;8.650;2024-01-10T13:14:28;41.63;;;32.13;;
63346;SDS011;49472;49.880;8.650;2024-01-10T13:16:56;35.73;;;29.20;;
63346;SDS011;49472;49.880;8.650;2024-01-10T13:19:21;53.47;;;30.97;;
63346;SDS011;49472;49.880;8.650;2024-01-10T13:21:46;41.50;;;32.20;;
63346;SDS011;49472;49.880;8.650;2024-01-10T13:24:11;45.77;;;33.40;;
63346;SDS011;49472;49.880;8.650;2024-01-10T13:26:37;41.87;;;31.20;;
63346;SDS011;49472;49.880;8.650;2024-01-10T13:29:02;39.50;;;31.57;;
63346;SDS011;49472;49.880;8.650;2024-01-10T13:31:27;40.47;;;32.40;;
63346;SDS011;49472;49.880;8.650;2024-01-10T13:33:53;49.77;;;31.70;;
63346;SDS011;49472;49.880;8.650;2024-01-10T13:36:19;40.20;;;32.17;;
63346;SDS011;49472;49.880;8.650;2024-01-10T13:38:44;38.43;;;30.40;;
63346;SDS011;49472;49.880;8.650;2024-01-10T13:41:09;40.03;;;30.67;;
63346;SDS011;49472;49.880;8.650;2024-01-10T13:43:35;43.93;;;32.33;;
63346;SDS011;49472;49.880;8.650;2024-01-10T13:46:00;41.87;;;31.07;;
63346;SDS011;49472;49.880;8.650;2024-01-10T13:48:26;43.37;;;31.27;;
63346;SDS011;49472;49.880;8.650;2024-01-10T13:50:51;44.30;;;32.33;;
63346;SDS011;49472;49.880;8.650;2024-01-10T13:53:17;48.53;;;31.97;;
63346;SDS011;49472;49.880;8.650;2024-01-10T13:55:42;46.20;;;32.47;;
63346;SDS011;49472;49.880;8.650;2024-01-10T13:58:07;41.90;;;30.67;;
63346;SDS011;49472;49.880;8.650;2024-01-10T14:00:33;42.70;;;30.50;;
63346;SDS011;49472;49.880;8.650;2024-01-10T14:02:59;38.50;;;29.33;;
63346;SDS011;49472;49.880;8.650;2024-01-10T14:05:25;45.03;;;30.50;;
63346;SDS011;49472;49.880;8.650;2024-01-10T14:07:50;41.30;;;29.50;;
63346;SDS011;49472;49.880;8.650;2024-01-10T14:10:15;44.53;;;30.97;;
63346;SDS011;49472;49.880;8.650;2024-01-10T14:12:41;41.80;;;30.20;;
63346;SDS011;49472;49.880;8.650;2024-01-10T14:15:06;41.40;;;30.10;;
63346;SDS011;49472;49.880;8.650;2024-01-10T14:17:31;42.27;;;29.20;;
63346;SDS011;49472;49.880;8.650;2024-01-10T14:19:56;39.50;;;29.77;;
63346;SDS011;49472;49.880;8.650;2024-01-10T14:22:22;42.10;;;30.37;;